sensor_id;sensor_type;location;lat;lon;timestamp;temperature;humidity
13405;DHT22;6773;51.192;7.024;2022-09-17T00:02:20;10.00;99.90
13405;DHT22;6773;51.192;7.024;2022-09-17T00:04:47;9.90;99.90
13405;DHT22;6773;51.192;7.024;2022-09-17T00:07:13;9.90;99.90
13405;DHT22;6773;51.192;7.024;2022-09-17T00:09:39;9.90;99.90
13405;DHT22;6773;51.192;7.024;2022-09-17T00:12:04;10.00;99.90
13405;DHT22;6773;51.192;7.024;2022-09-17T00:14:30;9.90;99.90
13405;DHT22;6773;51.192;7.024;2022-09-17T00:16:55;10.00;99.90
13405;DHT22;6773;51.192;7.024;2022-09-17T00:19:22;9.90;99.90
13405;DHT22;6773;51.192;7.024;2022-09-17T00:21:48;9.90;99.90
13405;DHT22;6773;51.192;7.024;2022-09-17T00:24:15;9.90;99.90
13405;DHT22;6773;51.192;7.024;2022-09-17T00:31:33;10.10;99.90
13405;DHT22;6773;51.192;7.024;2022-09-17T00:34:00;10.10;99.90
13405;DHT22;6773;51.192;7.024;2022-09-17T00:36:26;10.00;99.90
13405;DHT22;6773;51.192;7.024;2022-09-17T00:38:54;10.00;99.90
13405;DHT22;6773;51.192;7.024;2022-09-17T00:41:21;10.00;99.90
13405;DHT22;6773;51.192;7.024;2022-09-17T00:43:50;9.90;99.90
13405;DHT22;6773;51.192;7.024;2022-09-17T00:48:42;10.00;99.90
13405;DHT22;6773;51.192;7.024;2022-09-17T00:51:09;9.90;99.90
13405;DHT22;6773;51.192;7.024;2022-09-17T00:53:36;9.90;99.90
13405;DHT22;6773;51.192;7.024;2022-09-17T00:56:10;9.90;99.90
13405;DHT22;6773;51.192;7.024;2022-09-17T00:58:38;9.80;99.90
13405;DHT22;6773;51.192;7.024;2022-09-17T01:01:04;9.90;99.90
13405;DHT22;6773;51.192;7.024;2022-09-17T01:03:30;9.90;99.90
13405;DHT22;6773;51.192;7.024;2022-09-17T01:06:24;9.90;99.90
13405;DHT22;6773;51.192;7.024;2022-09-17T01:09:20;9.90;99.90
13405;DHT22;6773;51.192;7.024;2022-09-17T01:20:36;9.90;99.90
13405;DHT22;6773;51.192;7.024;2022-09-17T01:31:52;9.70;99.90
13405;DHT22;6773;51.192;7.024;2022-09-17T01:34:39;9.70;99.90
13405;DHT22;6773;51.192;7.024;2022-09-17T01:39:55;9.70;99.90
13405;DHT22;6773;51.192;7.024;2022-09-17T01:42:31;10.60;99.90
13405;DHT22;6773;51.192;7.024;2022-09-17T01:45:07;9.70;99.90
13405;DHT22;6773;51.192;7.024;2022-09-17T01:47:41;9.80;99.90
13405;DHT22;6773;51.192;7.024;2022-09-17T01:50:17;9.80;99.90
13405;DHT22;6773;51.192;7.024;2022-09-17T01:52:46;10.00;99.90
13405;DHT22;6773;51.192;7.024;2022-09-17T01:55:15;9.80;99.90
13405;DHT22;6773;51.192;7.024;2022-09-17T01:57:50;9.80;99.90
13405;DHT22;6773;51.192;7.024;2022-09-17T02:00:18;9.80;99.90
13405;DHT22;6773;51.192;7.024;2022-09-17T02:08:08;9.80;99.90
13405;DHT22;6773;51.192;7.024;2022-09-17T02:10:38;9.80;99.90
13405;DHT22;6773;51.192;7.024;2022-09-17T02:13:16;9.90;99.90
13405;DHT22;6773;51.192;7.024;2022-09-17T02:15:48;9.80;99.90
13405;DHT22;6773;51.192;7.024;2022-09-17T02:20:47;9.80;99.90
13405;DHT22;6773;51.192;7.024;2022-09-17T02:23:20;9.80;99.90
13405;DHT22;6773;51.192;7.024;2022-09-17T02:26:03;9.80;99.90
13405;DHT22;6773;51.192;7.024;2022-09-17T02:28:52;9.80;99.90
13405;DHT22;6773;51.192;7.024;2022-09-17T02:31:20;9.80;99.90
13405;DHT22;6773;51.192;7.024;2022-09-17T02:33:51;9.80;99.90
13405;DHT22;6773;51.192;7.024;2022-09-17T02:38:45;9.80;99.90
13405;DHT22;6773;51.192;7.024;2022-09-17T02:46:41;9.80;99.90
13405;DHT22;6773;51.192;7.024;2022-09-17T02:52:05;9.80;99.90
13405;DHT22;6773;51.192;7.024;2022-09-17T02:54:47;9.80;99.90
13405;DHT22;6773;51.192;7.024;2022-09-17T02:57:26;9.70;99.90
13405;DHT22;6773;51.192;7.024;2022-09-17T03:00:20;9.80;99.90
13405;DHT22;6773;51.192;7.024;2022-09-17T03:03:04;9.80;99.90
13405;DHT22;6773;51.192;7.024;2022-09-17T03:05:33;9.80;99.90
13405;DHT22;6773;51.192;7.024;2022-09-17T03:12:54;9.80;99.90
13405;DHT22;6773;51.192;7.024;2022-09-17T03:15:20;9.80;99.90
13405;DHT22;6773;51.192;7.024;2022-09-17T03:20:11;9.80;99.90
13405;DHT22;6773;51.192;7.024;2022-09-17T03:22:40;9.80;99.90
13405;DHT22;6773;51.192;7.024;2022-09-17T03:25:06;9.80;99.90
13405;DHT22;6773;51.192;7.024;2022-09-17T03:27:32;9.70;99.90
13405;DHT22;6773;51.192;7.024;2022-09-17T03:29:58;9.70;99.90
13405;DHT22;6773;51.192;7.024;2022-09-17T03:32:24;9.70;99.90
13405;DHT22;6773;51.192;7.024;2022-09-17T03:34:49;9.70;99.90
13405;DHT22;6773;51.192;7.024;2022-09-17T03:37:15;9.70;99.90
13405;DHT22;6773;51.192;7.024;2022-09-17T03:39:41;9.70;99.90
13405;DHT22;6773;51.192;7.024;2022-09-17T03:42:06;9.70;99.90
13405;DHT22;6773;51.192;7.024;2022-09-17T03:46:58;9.80;99.90
13405;DHT22;6773;51.192;7.024;2022-09-17T03:51:50;9.70;99.90
13405;DHT22;6773;51.192;7.024;2022-09-17T03:56:42;9.70;99.90
13405;DHT22;6773;51.192;7.024;2022-09-17T04:01:33;9.70;99.90
13405;DHT22;6773;51.192;7.024;2022-09-17T04:04:01;9.80;99.90
13405;DHT22;6773;51.192;7.024;2022-09-17T04:06:26;9.80;99.90
13405;DHT22;6773;51.192;7.024;2022-09-17T04:08:52;9.80;99.90
13405;DHT22;6773;51.192;7.024;2022-09-17T04:11:18;9.80;99.90
13405;DHT22;6773;51.192;7.024;2022-09-17T04:13:43;9.80;99.90
13405;DHT22;6773;51.192;7.024;2022-09-17T04:16:09;9.80;99.90
13405;DHT22;6773;51.192;7.024;2022-09-17T04:21:01;9.80;99.90
13405;DHT22;6773;51.192;7.024;2022-09-17T04:23:27;9.70;99.90
13405;DHT22;6773;51.192;7.024;2022-09-17T04:25:52;9.90;99.90
13405;DHT22;6773;51.192;7.024;2022-09-17T04:28:18;9.90;99.90
13405;DHT22;6773;51.192;7.024;2022-09-17T04:30:43;9.90;99.90
13405;DHT22;6773;51.192;7.024;2022-09-17T04:33:10;9.90;99.90
13405;DHT22;6773;51.192;7.024;2022-09-17T04:35:36;9.90;99.90
13405;DHT22;6773;51.192;7.024;2022-09-17T04:38:01;9.90;99.90
13405;DHT22;6773;51.192;7.024;2022-09-17T04:40:27;9.90;99.90
13405;DHT22;6773;51.192;7.024;2022-09-17T04:42:54;9.90;99.90
13405;DHT22;6773;51.192;7.024;2022-09-17T04:50:12;9.80;99.90
13405;DHT22;6773;51.192;7.024;2022-09-17T04:52:42;9.80;99.90
13405;DHT22;6773;51.192;7.024;2022-09-17T04:55:08;9.80;99.90
13405;DHT22;6773;51.192;7.024;2022-09-17T05:00:00;9.70;99.90
13405;DHT22;6773;51.192;7.024;2022-09-17T05:02:26;9.70;99.90
13405;DHT22;6773;51.192;7.024;2022-09-17T05:04:51;9.70;99.90
13405;DHT22;6773;51.192;7.024;2022-09-17T05:07:17;9.60;99.90
13405;DHT22;6773;51.192;7.024;2022-09-17T05:09:43;9.60;99.90
13405;DHT22;6773;51.192;7.024;2022-09-17T05:12:08;9.60;99.90
13405;DHT22;6773;51.192;7.024;2022-09-17T05:14:34;9.60;99.90
13405;DHT22;6773;51.192;7.024;2022-09-17T05:16:59;9.60;99.90
13405;DHT22;6773;51.192;7.024;2022-09-17T05:19:25;9.60;99.90
13405;DHT22;6773;51.192;7.024;2022-09-17T05:26:42;9.60;99.90
13405;DHT22;6773;51.192;7.024;2022-09-17T05:36:26;9.50;99.90
13405;DHT22;6773;51.192;7.024;2022-09-17T05:43:43;9.50;99.90
13405;DHT22;6773;51.192;7.024;2022-09-17T05:46:09;9.50;99.90
13405;DHT22;6773;51.192;7.024;2022-09-17T05:51:01;9.60;99.90
13405;DHT22;6773;51.192;7.024;2022-09-17T05:53:27;9.60;99.90
13405;DHT22;6773;51.192;7.024;2022-09-17T05:55:59;9.70;99.90
13405;DHT22;6773;51.192;7.024;2022-09-17T05:58:25;9.70;99.90
13405;DHT22;6773;51.192;7.024;2022-09-17T06:03:19;9.80;99.90
13405;DHT22;6773;51.192;7.024;2022-09-17T06:05:56;10.00;99.90
13405;DHT22;6773;51.192;7.024;2022-09-17T06:08:23;10.00;99.90
13405;DHT22;6773;51.192;7.024;2022-09-17T06:10:49;10.10;99.90
13405;DHT22;6773;51.192;7.024;2022-09-17T06:13:18;10.00;99.90
13405;DHT22;6773;51.192;7.024;2022-09-17T06:15:52;10.00;99.90
13405;DHT22;6773;51.192;7.024;2022-09-17T06:18:19;10.00;99.90
13405;DHT22;6773;51.192;7.024;2022-09-17T06:21:00;10.10;99.90
13405;DHT22;6773;51.192;7.024;2022-09-17T06:23:26;10.20;99.90
13405;DHT22;6773;51.192;7.024;2022-09-17T06:25:57;10.20;99.90
13405;DHT22;6773;51.192;7.024;2022-09-17T06:28:27;10.20;99.90
13405;DHT22;6773;51.192;7.024;2022-09-17T06:30:53;10.20;99.90
13405;DHT22;6773;51.192;7.024;2022-09-17T06:33:20;10.20;99.90
13405;DHT22;6773;51.192;7.024;2022-09-17T06:35:46;10.20;99.90
13405;DHT22;6773;51.192;7.024;2022-09-17T06:38:12;10.20;99.90
13405;DHT22;6773;51.192;7.024;2022-09-17T06:40:38;10.20;99.90
13405;DHT22;6773;51.192;7.024;2022-09-17T06:43:04;10.10;99.90
13405;DHT22;6773;51.192;7.024;2022-09-17T06:45:30;10.00;99.90
13405;DHT22;6773;51.192;7.024;2022-09-17T06:50:22;10.00;99.90
13405;DHT22;6773;51.192;7.024;2022-09-17T06:52:52;10.00;99.90
13405;DHT22;6773;51.192;7.024;2022-09-17T06:57:44;10.10;99.90
13405;DHT22;6773;51.192;7.024;2022-09-17T07:00:10;10.00;99.90
13405;DHT22;6773;51.192;7.024;2022-09-17T07:02:36;10.10;99.90
13405;DHT22;6773;51.192;7.024;2022-09-17T07:05:03;10.20;99.90
13405;DHT22;6773;51.192;7.024;2022-09-17T07:07:28;10.20;99.90
13405;DHT22;6773;51.192;7.024;2022-09-17T07:09:54;10.30;99.90
13405;DHT22;6773;51.192;7.024;2022-09-17T07:12:20;10.20;99.90
13405;DHT22;6773;51.192;7.024;2022-09-17T07:17:13;10.30;99.90
13405;DHT22;6773;51.192;7.024;2022-09-17T07:19:39;10.40;99.90
13405;DHT22;6773;51.192;7.024;2022-09-17T07:22:04;10.40;99.90
13405;DHT22;6773;51.192;7.024;2022-09-17T07:29:22;10.60;99.90
13405;DHT22;6773;51.192;7.024;2022-09-17T07:31:54;10.90;99.90
13405;DHT22;6773;51.192;7.024;2022-09-17T07:34:20;11.20;99.90
13405;DHT22;6773;51.192;7.024;2022-09-17T07:36:45;11.50;99.90
13405;DHT22;6773;51.192;7.024;2022-09-17T07:39:11;11.70;99.90
13405;DHT22;6773;51.192;7.024;2022-09-17T07:51:25;12.00;99.90
13405;DHT22;6773;51.192;7.024;2022-09-17T07:53:56;12.10;99.90
13405;DHT22;6773;51.192;7.024;2022-09-17T07:56:26;12.20;99.90
13405;DHT22;6773;51.192;7.024;2022-09-17T07:58:51;12.30;99.90
13405;DHT22;6773;51.192;7.024;2022-09-17T08:01:18;12.30;99.90
13405;DHT22;6773;51.192;7.024;2022-09-17T08:03:53;12.10;99.90
13405;DHT22;6773;51.192;7.024;2022-09-17T08:06:21;12.00;99.90
13405;DHT22;6773;51.192;7.024;2022-09-17T08:08:47;12.20;99.90
13405;DHT22;6773;51.192;7.024;2022-09-17T08:11:16;12.50;99.90
13405;DHT22;6773;51.192;7.024;2022-09-17T08:13:42;12.60;99.90
13405;DHT22;6773;51.192;7.024;2022-09-17T08:16:11;12.60;99.90
13405;DHT22;6773;51.192;7.024;2022-09-17T08:18:40;12.70;99.90
13405;DHT22;6773;51.192;7.024;2022-09-17T08:21:08;12.80;99.90
13405;DHT22;6773;51.192;7.024;2022-09-17T08:23:36;12.80;99.90
13405;DHT22;6773;51.192;7.024;2022-09-17T08:26:03;12.80;99.90
13405;DHT22;6773;51.192;7.024;2022-09-17T08:28:30;13.10;99.90
13405;DHT22;6773;51.192;7.024;2022-09-17T08:31:07;13.20;99.90
13405;DHT22;6773;51.192;7.024;2022-09-17T08:33:35;13.10;99.90
13405;DHT22;6773;51.192;7.024;2022-09-17T08:36:01;13.00;99.90
13405;DHT22;6773;51.192;7.024;2022-09-17T08:38:28;12.90;99.90
13405;DHT22;6773;51.192;7.024;2022-09-17T08:46:20;13.20;99.90
13405;DHT22;6773;51.192;7.024;2022-09-17T09:02:54;14.50;99.90
13405;DHT22;6773;51.192;7.024;2022-09-17T09:05:45;14.60;99.90
13405;DHT22;6773;51.192;7.024;2022-09-17T09:11:09;14.90;99.90
13405;DHT22;6773;51.192;7.024;2022-09-17T09:13:45;14.40;99.90
13405;DHT22;6773;51.192;7.024;2022-09-17T09:16:18;14.10;99.90
13405;DHT22;6773;51.192;7.024;2022-09-17T09:18:50;14.10;99.90
13405;DHT22;6773;51.192;7.024;2022-09-17T09:21:27;14.10;99.90
13405;DHT22;6773;51.192;7.024;2022-09-17T09:26:48;13.20;99.90
13405;DHT22;6773;51.192;7.024;2022-09-17T09:34:39;14.40;99.90
13405;DHT22;6773;51.192;7.024;2022-09-17T09:37:31;14.40;99.90
13405;DHT22;6773;51.192;7.024;2022-09-17T09:40:27;14.40;99.90
13405;DHT22;6773;51.192;7.024;2022-09-17T09:42:59;14.90;99.90
13405;DHT22;6773;51.192;7.024;2022-09-17T09:57:21;15.70;99.90
13405;DHT22;6773;51.192;7.024;2022-09-17T10:04:41;16.40;97.70
13405;DHT22;6773;51.192;7.024;2022-09-17T10:07:09;16.20;99.90
13405;DHT22;6773;51.192;7.024;2022-09-17T10:09:37;15.90;99.30
13405;DHT22;6773;51.192;7.024;2022-09-17T10:14:40;15.70;99.10
13405;DHT22;6773;51.192;7.024;2022-09-17T10:17:23;15.60;99.90
13405;DHT22;6773;51.192;7.024;2022-09-17T10:24:57;14.70;99.90
13405;DHT22;6773;51.192;7.024;2022-09-17T10:27:24;14.30;99.90
13405;DHT22;6773;51.192;7.024;2022-09-17T10:30:02;14.70;99.90
13405;DHT22;6773;51.192;7.024;2022-09-17T10:32:28;15.60;99.90
13405;DHT22;6773;51.192;7.024;2022-09-17T10:37:46;16.60;99.90
13405;DHT22;6773;51.192;7.024;2022-09-17T10:42:44;16.80;92.70
13405;DHT22;6773;51.192;7.024;2022-09-17T10:45:30;16.80;95.90
13405;DHT22;6773;51.192;7.024;2022-09-17T10:47:58;17.30;97.30
13405;DHT22;6773;51.192;7.024;2022-09-17T10:50:33;17.70;92.50
13405;DHT22;6773;51.192;7.024;2022-09-17T10:53:03;17.70;93.30
13405;DHT22;6773;51.192;7.024;2022-09-17T10:58:07;17.70;92.60
13405;DHT22;6773;51.192;7.024;2022-09-17T11:01:09;17.70;91.20
13405;DHT22;6773;51.192;7.024;2022-09-17T11:03:52;16.80;92.80
13405;DHT22;6773;51.192;7.024;2022-09-17T11:10:15;15.80;99.10
13405;DHT22;6773;51.192;7.024;2022-09-17T11:32:27;15.50;99.90
13405;DHT22;6773;51.192;7.024;2022-09-17T11:35:26;16.30;99.60
13405;DHT22;6773;51.192;7.024;2022-09-17T11:38:08;15.80;99.90
13405;DHT22;6773;51.192;7.024;2022-09-17T11:40:39;15.70;99.90
13405;DHT22;6773;51.192;7.024;2022-09-17T11:43:26;15.70;99.90
13405;DHT22;6773;51.192;7.024;2022-09-17T11:48:33;15.10;99.90
13405;DHT22;6773;51.192;7.024;2022-09-17T11:53:54;14.80;99.90
13405;DHT22;6773;51.192;7.024;2022-09-17T11:56:39;14.60;99.90
13405;DHT22;6773;51.192;7.024;2022-09-17T11:59:33;14.30;99.90
13405;DHT22;6773;51.192;7.024;2022-09-17T12:02:16;14.10;99.90
13405;DHT22;6773;51.192;7.024;2022-09-17T12:05:04;13.90;99.90
13405;DHT22;6773;51.192;7.024;2022-09-17T12:07:55;13.30;99.90
13405;DHT22;6773;51.192;7.024;2022-09-17T12:16:15;13.00;99.90
13405;DHT22;6773;51.192;7.024;2022-09-17T12:21:58;13.40;99.90
13405;DHT22;6773;51.192;7.024;2022-09-17T12:29:47;15.10;99.90
13405;DHT22;6773;51.192;7.024;2022-09-17T12:54:55;12.80;99.90
13405;DHT22;6773;51.192;7.024;2022-09-17T13:06:11;12.50;99.90
13405;DHT22;6773;51.192;7.024;2022-09-17T13:08:51;12.70;99.90
13405;DHT22;6773;51.192;7.024;2022-09-17T13:12:04;13.80;99.90
13405;DHT22;6773;51.192;7.024;2022-09-17T13:17:27;15.60;99.90
13405;DHT22;6773;51.192;7.024;2022-09-17T13:20:04;16.40;99.90
13405;DHT22;6773;51.192;7.024;2022-09-17T13:22:43;17.10;99.90
13405;DHT22;6773;51.192;7.024;2022-09-17T13:25:12;17.70;99.90
13405;DHT22;6773;51.192;7.024;2022-09-17T13:27:38;18.10;99.90
13405;DHT22;6773;51.192;7.024;2022-09-17T13:30:06;18.10;99.90
13405;DHT22;6773;51.192;7.024;2022-09-17T13:40:33;18.40;98.80
13405;DHT22;6773;51.192;7.024;2022-09-17T13:45:28;18.60;99.90
13405;DHT22;6773;51.192;7.024;2022-09-17T13:48:07;18.90;99.20
13405;DHT22;6773;51.192;7.024;2022-09-17T14:19:29;14.70;99.90
13405;DHT22;6773;51.192;7.024;2022-09-17T14:32:17;11.40;99.90
13405;DHT22;6773;51.192;7.024;2022-09-17T14:34:47;11.60;99.90
13405;DHT22;6773;51.192;7.024;2022-09-17T14:37:16;11.70;99.90
13405;DHT22;6773;51.192;7.024;2022-09-17T14:39:44;11.90;99.90
13405;DHT22;6773;51.192;7.024;2022-09-17T14:42:16;12.00;99.90
13405;DHT22;6773;51.192;7.024;2022-09-17T14:44:49;12.10;99.90
13405;DHT22;6773;51.192;7.024;2022-09-17T14:47:17;12.00;99.90
13405;DHT22;6773;51.192;7.024;2022-09-17T14:49:44;12.00;99.90
13405;DHT22;6773;51.192;7.024;2022-09-17T14:52:27;12.00;99.90
13405;DHT22;6773;51.192;7.024;2022-09-17T14:57:51;12.10;99.90
13405;DHT22;6773;51.192;7.024;2022-09-17T15:00:38;12.20;99.90
13405;DHT22;6773;51.192;7.024;2022-09-17T15:03:04;12.50;99.90
13405;DHT22;6773;51.192;7.024;2022-09-17T15:05:33;12.70;99.90
13405;DHT22;6773;51.192;7.024;2022-09-17T15:11:01;14.40;99.90
13405;DHT22;6773;51.192;7.024;2022-09-17T15:13:36;15.00;99.90
13405;DHT22;6773;51.192;7.024;2022-09-17T15:16:12;14.80;99.90
13405;DHT22;6773;51.192;7.024;2022-09-17T15:18:46;14.90;99.90
13405;DHT22;6773;51.192;7.024;2022-09-17T15:26:45;15.30;99.90
13405;DHT22;6773;51.192;7.024;2022-09-17T15:29:13;15.00;99.90
13405;DHT22;6773;51.192;7.024;2022-09-17T15:31:39;15.20;99.90
13405;DHT22;6773;51.192;7.024;2022-09-17T15:34:05;15.50;99.90
13405;DHT22;6773;51.192;7.024;2022-09-17T15:36:31;15.60;99.90
13405;DHT22;6773;51.192;7.024;2022-09-17T15:38:57;15.50;99.90
13405;DHT22;6773;51.192;7.024;2022-09-17T15:41:31;15.30;99.90
13405;DHT22;6773;51.192;7.024;2022-09-17T15:44:20;15.60;99.90
13405;DHT22;6773;51.192;7.024;2022-09-17T15:46:47;16.00;99.90
13405;DHT22;6773;51.192;7.024;2022-09-17T15:49:41;16.10;99.90
13405;DHT22;6773;51.192;7.024;2022-09-17T15:52:29;16.00;99.90
13405;DHT22;6773;51.192;7.024;2022-09-17T15:54:58;16.00;99.90
13405;DHT22;6773;51.192;7.024;2022-09-17T15:57:25;16.00;99.90
13405;DHT22;6773;51.192;7.024;2022-09-17T15:59:52;15.70;99.90
13405;DHT22;6773;51.192;7.024;2022-09-17T16:02:29;15.50;99.90
13405;DHT22;6773;51.192;7.024;2022-09-17T16:07:50;15.00;99.90
13405;DHT22;6773;51.192;7.024;2022-09-17T16:10:16;14.40;99.90
13405;DHT22;6773;51.192;7.024;2022-09-17T16:12:42;14.10;99.90
13405;DHT22;6773;51.192;7.024;2022-09-17T16:17:44;13.30;99.90
13405;DHT22;6773;51.192;7.024;2022-09-17T16:25:06;13.50;99.90
13405;DHT22;6773;51.192;7.024;2022-09-17T16:27:51;13.80;99.90
13405;DHT22;6773;51.192;7.024;2022-09-17T16:30:21;14.10;99.90
13405;DHT22;6773;51.192;7.024;2022-09-17T16:32:47;14.40;99.90
13405;DHT22;6773;51.192;7.024;2022-09-17T16:35:17;14.60;99.90
13405;DHT22;6773;51.192;7.024;2022-09-17T16:37:47;14.70;99.90
13405;DHT22;6773;51.192;7.024;2022-09-17T16:42:40;14.20;99.90
13405;DHT22;6773;51.192;7.024;2022-09-17T16:45:06;14.10;99.90
13405;DHT22;6773;51.192;7.024;2022-09-17T16:47:35;13.80;99.90
13405;DHT22;6773;51.192;7.024;2022-09-17T16:50:05;13.90;99.90
13405;DHT22;6773;51.192;7.024;2022-09-17T16:54:57;14.00;99.90
13405;DHT22;6773;51.192;7.024;2022-09-17T16:59:49;13.70;99.90
13405;DHT22;6773;51.192;7.024;2022-09-17T17:07:06;13.00;99.90
13405;DHT22;6773;51.192;7.024;2022-09-17T17:14:24;12.80;99.90
13405;DHT22;6773;51.192;7.024;2022-09-17T17:19:16;12.50;99.90
13405;DHT22;6773;51.192;7.024;2022-09-17T17:21:42;12.40;99.90
13405;DHT22;6773;51.192;7.024;2022-09-17T17:24:07;12.30;99.90
13405;DHT22;6773;51.192;7.024;2022-09-17T17:26:33;12.20;99.90
13405;DHT22;6773;51.192;7.024;2022-09-17T17:31:27;12.00;99.90
13405;DHT22;6773;51.192;7.024;2022-09-17T17:33:52;11.90;99.90
13405;DHT22;6773;51.192;7.024;2022-09-17T17:38:44;11.70;99.90
13405;DHT22;6773;51.192;7.024;2022-09-17T17:41:12;11.60;99.90
13405;DHT22;6773;51.192;7.024;2022-09-17T17:43:38;11.50;99.90
13405;DHT22;6773;51.192;7.024;2022-09-17T17:46:06;11.50;99.90
13405;DHT22;6773;51.192;7.024;2022-09-17T17:48:32;11.50;99.90
13405;DHT22;6773;51.192;7.024;2022-09-17T17:51:03;11.40;99.90
13405;DHT22;6773;51.192;7.024;2022-09-17T17:55:57;11.40;99.90
13405;DHT22;6773;51.192;7.024;2022-09-17T18:08:07;11.20;99.90
13405;DHT22;6773;51.192;7.024;2022-09-17T18:12:59;11.10;99.90
13405;DHT22;6773;51.192;7.024;2022-09-17T18:15:25;11.00;99.90
13405;DHT22;6773;51.192;7.024;2022-09-17T18:17:51;11.10;99.90
13405;DHT22;6773;51.192;7.024;2022-09-17T18:20:18;11.00;99.90
13405;DHT22;6773;51.192;7.024;2022-09-17T18:22:43;11.00;99.90
13405;DHT22;6773;51.192;7.024;2022-09-17T18:25:09;11.00;99.90
13405;DHT22;6773;51.192;7.024;2022-09-17T18:27:35;11.00;99.90
13405;DHT22;6773;51.192;7.024;2022-09-17T18:30:00;11.00;99.90
13405;DHT22;6773;51.192;7.024;2022-09-17T18:32:26;10.90;99.90
13405;DHT22;6773;51.192;7.024;2022-09-17T18:34:52;10.90;99.90
13405;DHT22;6773;51.192;7.024;2022-09-17T18:37:18;11.00;99.90
13405;DHT22;6773;51.192;7.024;2022-09-17T18:39:44;11.10;99.90
13405;DHT22;6773;51.192;7.024;2022-09-17T18:42:14;11.10;99.90
13405;DHT22;6773;51.192;7.024;2022-09-17T18:44:40;11.10;99.90
13405;DHT22;6773;51.192;7.024;2022-09-17T18:47:05;11.20;99.90
13405;DHT22;6773;51.192;7.024;2022-09-17T18:54:23;11.30;99.90
13405;DHT22;6773;51.192;7.024;2022-09-17T18:59:14;11.40;99.90
13405;DHT22;6773;51.192;7.024;2022-09-17T19:06:32;11.40;99.90
13405;DHT22;6773;51.192;7.024;2022-09-17T19:08:59;11.40;99.90
13405;DHT22;6773;51.192;7.024;2022-09-17T19:11:25;11.40;99.90
13405;DHT22;6773;51.192;7.024;2022-09-17T19:13:51;11.50;99.90
13405;DHT22;6773;51.192;7.024;2022-09-17T19:16:17;11.40;99.90
13405;DHT22;6773;51.192;7.024;2022-09-17T19:18:43;11.50;99.90
13405;DHT22;6773;51.192;7.024;2022-09-17T19:21:17;11.50;99.90
13405;DHT22;6773;51.192;7.024;2022-09-17T19:23:44;11.50;99.90
13405;DHT22;6773;51.192;7.024;2022-09-17T19:26:16;11.40;99.90
13405;DHT22;6773;51.192;7.024;2022-09-17T19:28:43;11.40;99.90
13405;DHT22;6773;51.192;7.024;2022-09-17T19:31:11;11.40;99.90
13405;DHT22;6773;51.192;7.024;2022-09-17T19:33:37;11.40;99.90
13405;DHT22;6773;51.192;7.024;2022-09-17T19:36:07;11.40;99.90
13405;DHT22;6773;51.192;7.024;2022-09-17T19:41:08;11.30;99.90
13405;DHT22;6773;51.192;7.024;2022-09-17T19:43:36;11.30;99.90
13405;DHT22;6773;51.192;7.024;2022-09-17T19:46:03;11.30;99.90
13405;DHT22;6773;51.192;7.024;2022-09-17T19:48:29;11.30;99.90
13405;DHT22;6773;51.192;7.024;2022-09-17T19:50:56;11.30;99.90
13405;DHT22;6773;51.192;7.024;2022-09-17T19:53:22;11.20;99.90
13405;DHT22;6773;51.192;7.024;2022-09-17T19:55:48;11.20;99.90
13405;DHT22;6773;51.192;7.024;2022-09-17T19:58:14;11.20;99.90
13405;DHT22;6773;51.192;7.024;2022-09-17T20:00:40;11.30;99.90
13405;DHT22;6773;51.192;7.024;2022-09-17T20:03:06;11.20;99.90
13405;DHT22;6773;51.192;7.024;2022-09-17T20:05:32;11.20;99.90
13405;DHT22;6773;51.192;7.024;2022-09-17T20:07:58;11.20;99.90
13405;DHT22;6773;51.192;7.024;2022-09-17T20:12:50;11.30;99.90
13405;DHT22;6773;51.192;7.024;2022-09-17T20:15:16;11.30;99.90
13405;DHT22;6773;51.192;7.024;2022-09-17T20:17:42;11.30;99.90
13405;DHT22;6773;51.192;7.024;2022-09-17T20:20:08;11.30;99.90
13405;DHT22;6773;51.192;7.024;2022-09-17T20:22:34;11.30;99.90
13405;DHT22;6773;51.192;7.024;2022-09-17T20:24:59;11.30;99.90
13405;DHT22;6773;51.192;7.024;2022-09-17T20:32:17;11.30;99.90
13405;DHT22;6773;51.192;7.024;2022-09-17T20:34:42;11.20;99.90
13405;DHT22;6773;51.192;7.024;2022-09-17T20:39:34;11.20;99.90
13405;DHT22;6773;51.192;7.024;2022-09-17T20:44:28;11.10;99.90
13405;DHT22;6773;51.192;7.024;2022-09-17T20:46:53;11.10;99.90
13405;DHT22;6773;51.192;7.024;2022-09-17T20:51:46;11.10;99.90
13405;DHT22;6773;51.192;7.024;2022-09-17T20:56:38;11.10;99.90
13405;DHT22;6773;51.192;7.024;2022-09-17T20:59:10;11.10;99.90
13405;DHT22;6773;51.192;7.024;2022-09-17T21:01:41;11.10;99.90
13405;DHT22;6773;51.192;7.024;2022-09-17T21:04:09;11.10;99.90
13405;DHT22;6773;51.192;7.024;2022-09-17T21:06:39;11.10;99.90
13405;DHT22;6773;51.192;7.024;2022-09-17T21:09:06;11.10;99.90
13405;DHT22;6773;51.192;7.024;2022-09-17T21:14:00;11.10;99.90
13405;DHT22;6773;51.192;7.024;2022-09-17T21:16:26;11.10;99.90
13405;DHT22;6773;51.192;7.024;2022-09-17T21:19:04;11.10;99.90
13405;DHT22;6773;51.192;7.024;2022-09-17T21:21:31;11.10;99.90
13405;DHT22;6773;51.192;7.024;2022-09-17T21:24:04;11.10;99.90
13405;DHT22;6773;51.192;7.024;2022-09-17T21:26:31;11.10;99.90
13405;DHT22;6773;51.192;7.024;2022-09-17T21:28:57;11.10;99.90
13405;DHT22;6773;51.192;7.024;2022-09-17T21:31:28;11.10;99.90
13405;DHT22;6773;51.192;7.024;2022-09-17T21:33:56;11.10;99.90
13405;DHT22;6773;51.192;7.024;2022-09-17T21:36:24;11.10;99.90
13405;DHT22;6773;51.192;7.024;2022-09-17T21:39:00;11.10;99.90
13405;DHT22;6773;51.192;7.024;2022-09-17T21:41:27;11.00;99.90
13405;DHT22;6773;51.192;7.024;2022-09-17T21:43:54;10.90;99.90
13405;DHT22;6773;51.192;7.024;2022-09-17T21:46:24;10.90;99.90
13405;DHT22;6773;51.192;7.024;2022-09-17T21:48:57;10.80;99.90
13405;DHT22;6773;51.192;7.024;2022-09-17T21:51:32;10.80;99.90
13405;DHT22;6773;51.192;7.024;2022-09-17T21:54:03;10.70;99.90
13405;DHT22;6773;51.192;7.024;2022-09-17T21:56:29;10.70;99.90
13405;DHT22;6773;51.192;7.024;2022-09-17T21:59:00;10.70;99.90
13405;DHT22;6773;51.192;7.024;2022-09-17T22:01:32;10.60;99.90
13405;DHT22;6773;51.192;7.024;2022-09-17T22:04:00;10.60;99.90
13405;DHT22;6773;51.192;7.024;2022-09-17T22:06:30;10.50;99.90
13405;DHT22;6773;51.192;7.024;2022-09-17T22:08:57;10.50;99.90
13405;DHT22;6773;51.192;7.024;2022-09-17T22:11:28;10.50;99.90
13405;DHT22;6773;51.192;7.024;2022-09-17T22:14:01;10.40;99.90
13405;DHT22;6773;51.192;7.024;2022-09-17T22:16:30;10.40;99.90
13405;DHT22;6773;51.192;7.024;2022-09-17T22:18:57;10.40;99.90
13405;DHT22;6773;51.192;7.024;2022-09-17T22:21:26;10.50;99.90
13405;DHT22;6773;51.192;7.024;2022-09-17T22:23:54;10.40;99.90
13405;DHT22;6773;51.192;7.024;2022-09-17T22:26:22;10.50;99.90
13405;DHT22;6773;51.192;7.024;2022-09-17T22:28:48;10.50;99.90
13405;DHT22;6773;51.192;7.024;2022-09-17T22:31:14;10.50;99.90
13405;DHT22;6773;51.192;7.024;2022-09-17T22:33:43;10.50;99.90
13405;DHT22;6773;51.192;7.024;2022-09-17T22:36:12;10.50;99.90
13405;DHT22;6773;51.192;7.024;2022-09-17T22:38:39;10.60;99.90
13405;DHT22;6773;51.192;7.024;2022-09-17T22:41:16;10.60;99.90
13405;DHT22;6773;51.192;7.024;2022-09-17T22:46:29;10.50;99.90
13405;DHT22;6773;51.192;7.024;2022-09-17T22:48:55;10.40;99.90
13405;DHT22;6773;51.192;7.024;2022-09-17T22:51:22;10.40;99.90